Terminal Aerodrome Forecast
Issued by NWS Green Bay, WI

Home | Current Version | Previous Version | Text Only | Print | Product List | Glossary On
Versions: 1 2 3 4 5 6 7 8 9 10 11 12 13 14 15 16 17 18 19 20 21 22 23 24 25 26 27 28 29 30 31 32 33 34 35 36 37 38 39 40 41 42 43 44 45 46 47 48 49 50
000
FTUS43 KGRB 051219 AAA
TAFGRB
TAF AMD
KGRB 051219Z 0512/0612 VRB03KT 2SM BR SCT004 BKN020
      TEMPO 0512/0513 1/2SM FG BKN004
     FM051400 18005KT 6SM HZ BKN025
     FM051900 19007KT P6SM BKN035
     FM052300 15006KT P6SM SCT040
     FM060400 18004KT 3SM BR SCT150
      TEMPO 0604/0608 1SM BR SCT002
     FM060800 17003KT 2SM BR SCT150
      TEMPO 0608/0612 1/2SM FG BKN002=

USA.gov is the U.S. government's official web portal to all federal, state and local government web resources and services.